Time;durP1;ratioP1;P1;durP2;ratioP2;P2;SDS_P1;SDS_P2;PMS_P1;PMS_P2;Temp;Humidity;BMP_temperature;BMP_pressure;BME280_temperature;BME280_humidity;BME280_pressure;Samples;Min_cycle;Max_cycle;Signal;HPM_P1;HPM_P2
2021/04/29 00:00:58;;;;;;;14.10;6.97;;;9.90;68.10;;;;;;5097336;28;20024;-74
2021/04/29 00:03:24;;;;;;;10.55;7.32;;;9.90;68.20;;;;;;5090703;28;20020;-74
2021/04/29 00:05:49;;;;;;;17.75;8.55;;;9.90;68.50;;;;;;5102261;28;20030;-74
2021/04/29 00:08:15;;;;;;;11.80;7.63;;;9.90;68.90;;;;;;5089839;28;20021;-74
2021/04/29 00:10:43;;;;;;;13.57;7.32;;;9.80;68.90;;;;;;5089280;28;20034;-74
2021/04/29 00:13:09;;;;;;;13.98;8.02;;;9.80;69.20;;;;;;5110545;28;20024;-74
2021/04/29 00:15:34;;;;;;;12.90;7.68;;;9.80;69.30;;;;;;5075141;28;20031;-74
2021/04/29 00:18:00;;;;;;;13.90;7.40;;;9.80;69.40;;;;;;5074844;28;20478;-74
2021/04/29 00:20:28;;;;;;;19.23;9.52;;;9.80;69.60;;;;;;5106913;28;20072;-74
2021/04/29 00:22:53;;;;;;;17.40;8.93;;;9.80;70.30;;;;;;5096503;28;20436;-74
2021/04/29 00:25:19;;;;;;;11.23;7.85;;;9.80;70.20;;;;;;5109247;28;20081;-73
2021/04/29 00:27:47;;;;;;;12.57;7.97;;;9.90;69.60;;;;;;5082416;28;20024;-72
2021/04/29 00:30:13;;;;;;;13.85;7.60;;;9.80;69.80;;;;;;5063161;28;20067;-74
2021/04/29 00:32:41;;;;;;;14.98;8.60;;;9.80;70.10;;;;;;5090369;28;20055;-74
2021/04/29 00:35:08;;;;;;;10.30;7.22;;;9.80;70.30;;;;;;5096329;28;20493;-74
2021/04/29 00:37:34;;;;;;;14.43;8.25;;;10.00;69.90;;;;;;5106758;28;20468;-74
2021/04/29 00:40:00;;;;;;;15.95;8.82;;;9.90;69.80;;;;;;5103024;28;20023;-74
2021/04/29 00:42:25;;;;;;;10.88;7.80;;;9.80;70.40;;;;;;5081257;28;20028;-74
2021/04/29 00:44:53;;;;;;;15.45;8.50;;;9.90;70.00;;;;;;5109696;28;20039;-72
2021/04/29 00:47:19;;;;;;;12.35;8.15;;;10.00;70.00;;;;;;5094875;28;20020;-74
2021/04/29 00:49:45;;;;;;;10.68;6.80;;;10.00;69.90;;;;;;5100519;28;20027;-75
2021/04/29 00:52:11;;;;;;;12.30;7.75;;;10.00;69.50;;;;;;5101490;28;20103;-75
2021/04/29 00:54:36;;;;;;;12.70;7.50;;;10.00;69.70;;;;;;5107210;28;20523;-74
2021/04/29 00:57:02;;;;;;;10.40;7.93;;;10.10;69.50;;;;;;5110686;28;20032;-74
2021/04/29 00:59:28;;;;;;;14.48;6.88;;;10.10;69.30;;;;;;5098157;28;20040;-73
2021/04/29 01:02:02;;;;;;;13.60;6.95;;;10.10;69.10;;;;;;5085600;28;20019;-74
2021/04/29 01:05:10;;;;;;;9.93;6.55;;;10.10;69.40;;;;;;5088319;28;20076;-75
2021/04/29 01:07:40;;;;;;;12.88;7.32;;;10.00;69.40;;;;;;5079074;28;20500;-74
2021/04/29 01:10:23;;;;;;;15.80;7.63;;;10.00;69.50;;;;;;5103123;28;20031;-74
2021/04/29 01:12:57;;;;;;;9.95;7.28;;;10.10;69.50;;;;;;5077635;28;20374;-74
2021/04/29 01:15:24;;;;;;;9.13;6.32;;;10.20;69.10;;;;;;5085066;28;20373;-74
2021/04/29 01:17:50;;;;;;;13.25;7.03;;;10.20;68.60;;;;;;5082508;28;20076;-74
2021/04/29 01:20:22;;;;;;;15.05;6.78;;;10.20;68.80;;;;;;5100510;28;20682;-74
2021/04/29 01:22:58;;;;;;;14.13;6.75;;;10.30;68.40;;;;;;5108772;28;20377;-74
2021/04/29 01:25:28;;;;;;;14.48;7.40;;;10.30;68.30;;;;;;5064092;28;20020;-74
2021/04/29 01:27:54;;;;;;;7.40;5.57;;;10.30;68.20;;;;;;5085657;28;20078;-71
2021/04/29 01:30:20;;;;;;;11.05;7.10;;;10.40;67.80;;;;;;5086408;28;20032;-71
2021/04/29 01:32:46;;;;;;;10.90;6.30;;;10.30;68.00;;;;;;5077816;28;20026;-71
2021/04/29 01:35:12;;;;;;;11.55;6.05;;;10.40;67.60;;;;;;5090189;28;20090;-70
2021/04/29 01:37:38;;;;;;;11.18;6.47;;;10.40;67.70;;;;;;5080314;28;20012;-71
2021/04/29 01:40:06;;;;;;;11.32;7.25;;;10.40;67.60;;;;;;5083274;28;20028;-71
2021/04/29 01:42:36;;;;;;;13.85;5.95;;;10.40;68.10;;;;;;5106342;28;20028;-71
2021/04/29 01:45:04;;;;;;;10.38;6.28;;;10.40;67.40;;;;;;5077157;28;20043;-70
2021/04/29 01:47:32;;;;;;;12.27;6.28;;;10.50;67.40;;;;;;5084569;28;20494;-71
2021/04/29 01:49:58;;;;;;;8.52;5.85;;;10.60;67.10;;;;;;5081044;28;20109;-71
2021/04/29 01:52:26;;;;;;;9.88;6.38;;;10.50;67.00;;;;;;5086819;28;20458;-71
2021/04/29 01:54:52;;;;;;;9.57;6.22;;;10.60;67.20;;;;;;5095226;28;20097;-69
2021/04/29 01:57:19;;;;;;;8.55;5.65;;;10.50;67.30;;;;;;5089309;28;20024;-70
2021/04/29 01:59:46;;;;;;;10.48;6.40;;;10.60;66.90;;;;;;5081313;28;20108;-70
2021/04/29 02:02:12;;;;;;;9.38;5.88;;;10.60;67.10;;;;;;5081722;28;20502;-70
2021/04/29 02:04:38;;;;;;;10.07;5.97;;;10.70;66.70;;;;;;5107202;28;20127;-71
2021/04/29 02:07:06;;;;;;;7.70;5.45;;;10.70;66.60;;;;;;5079546;28;20082;-71
2021/04/29 02:09:32;;;;;;;10.02;6.15;;;10.70;66.50;;;;;;5101934;28;20034;-70
2021/04/29 02:12:02;;;;;;;9.25;5.70;;;10.70;66.50;;;;;;5106371;28;20016;-70
2021/04/29 02:14:36;;;;;;;11.27;6.45;;;10.70;66.50;;;;;;5104809;28;20295;-70
2021/04/29 02:17:08;;;;;;;12.73;6.72;;;10.60;66.60;;;;;;5100162;28;20031;-70
2021/04/29 02:19:35;;;;;;;8.18;5.60;;;10.70;67.30;;;;;;5092091;28;20032;-70
2021/04/29 02:22:01;;;;;;;8.93;5.68;;;10.70;66.60;;;;;;5087435;28;20031;-71
2021/04/29 02:24:32;;;;;;;10.30;5.90;;;10.70;66.50;;;;;;5083795;28;20519;-70
2021/04/29 02:26:59;;;;;;;10.63;6.05;;;10.70;66.50;;;;;;5111868;28;20032;-70
2021/04/29 02:29:25;;;;;;;9.18;5.28;;;10.70;66.60;;;;;;5082138;28;20036;-71
2021/04/29 02:31:51;;;;;;;7.50;5.97;;;10.80;66.50;;;;;;5106581;28;20423;-71
2021/04/29 02:34:19;;;;;;;6.53;5.13;;;10.70;66.70;;;;;;5107697;28;20491;-71
2021/04/29 02:36:45;;;;;;;11.50;5.63;;;10.80;66.60;;;;;;5098807;28;20039;-70
2021/04/29 02:39:10;;;;;;;11.70;6.07;;;10.80;66.70;;;;;;5112035;28;20024;-69
2021/04/29 02:41:39;;;;;;;8.43;5.65;;;10.80;66.90;;;;;;5101830;28;20011;-70
2021/04/29 02:44:05;;;;;;;10.32;6.25;;;10.80;66.80;;;;;;5104571;28;20103;-69
2021/04/29 02:46:31;;;;;;;8.88;6.45;;;10.70;67.10;;;;;;5090690;28;20058;-70
2021/04/29 02:48:57;;;;;;;10.32;6.93;;;10.70;67.30;;;;;;5064869;28;20025;-70
2021/04/29 02:51:23;;;;;;;7.18;5.78;;;10.70;67.40;;;;;;5099760;28;20026;-71
2021/04/29 02:53:48;;;;;;;10.07;6.18;;;10.70;67.50;;;;;;5088489;28;20012;-71
2021/04/29 02:56:14;;;;;;;9.82;5.40;;;10.80;67.20;;;;;;5088284;28;20043;-71
2021/04/29 02:58:47;;;;;;;11.65;6.45;;;10.80;67.40;;;;;;5099336;28;20405;-72
2021/04/29 03:01:14;;;;;;;9.05;6.32;;;10.90;67.30;;;;;;5080018;28;20016;-71
2021/04/29 03:03:40;;;;;;;9.07;6.40;;;10.80;67.50;;;;;;5107840;28;20473;-70
2021/04/29 03:06:06;;;;;;;9.95;6.82;;;10.80;67.50;;;;;;5105261;28;20091;-71
2021/04/29 03:08:32;;;;;;;8.95;6.68;;;10.90;67.30;;;;;;5086356;28;20103;-70
2021/04/29 03:11:02;;;;;;;8.77;6.43;;;10.90;67.10;;;;;;5093532;28;20020;-70
2021/04/29 03:13:28;;;;;;;10.00;6.60;;;10.90;67.20;;;;;;5085889;28;20022;-69
2021/04/29 03:15:53;;;;;;;13.13;6.18;;;10.90;67.20;;;;;;5101343;28;20020;-71
2021/04/29 03:18:19;;;;;;;46.00;29.73;;;10.90;67.40;;;;;;5100952;28;20043;-71
2021/04/29 03:20:44;;;;;;;11.05;6.70;;;10.90;67.40;;;;;;5123945;28;20024;-75
2021/04/29 03:23:10;;;;;;;11.90;6.63;;;10.90;67.40;;;;;;5111345;28;20448;-71
2021/04/29 03:25:36;;;;;;;10.32;6.22;;;11.00;67.50;;;;;;5102930;28;20076;-72
2021/04/29 03:28:03;;;;;;;9.95;6.05;;;11.00;67.30;;;;;;5086086;28;20393;-71
2021/04/29 03:30:30;;;;;;;9.38;6.63;;;11.00;67.00;;;;;;5108586;28;20031;-71
2021/04/29 03:32:58;;;;;;;9.13;6.53;;;11.10;66.80;;;;;;5097743;28;20051;-70
2021/04/29 03:35:24;;;;;;;7.97;6.25;;;11.10;66.80;;;;;;5091390;28;20012;-70
2021/04/29 03:37:49;;;;;;;9.73;6.63;;;11.10;67.10;;;;;;5102458;28;20023;-70
2021/04/29 03:40:15;;;;;;;10.25;6.38;;;11.10;67.50;;;;;;5102024;28;20027;-72
2021/04/29 03:42:41;;;;;;;9.50;6.28;;;11.10;67.60;;;;;;5109659;28;20027;-68
2021/04/29 03:45:07;;;;;;;8.55;6.40;;;11.10;67.30;;;;;;5097279;28;20112;-70
2021/04/29 03:47:33;;;;;;;11.77;6.80;;;11.10;67.30;;;;;;5103976;28;20063;-71
2021/04/29 03:50:01;;;;;;;16.20;6.97;;;11.10;67.50;;;;;;5065411;28;20100;-71
2021/04/29 03:52:27;;;;;;;11.40;6.70;;;11.10;68.30;;;;;;5108211;28;20451;-71
2021/04/29 03:54:52;;;;;;;11.00;7.45;;;11.10;68.80;;;;;;5079378;28;20036;-72
2021/04/29 03:57:18;;;;;;;9.43;7.07;;;11.10;70.60;;;;;;5091297;28;20073;-72
2021/04/29 03:59:43;;;;;;;13.88;7.85;;;11.00;70.20;;;;;;5083225;28;20030;-70
2021/04/29 04:02:12;;;;;;;11.20;7.20;;;11.10;69.80;;;;;;5102473;28;20028;-71
2021/04/29 04:04:38;;;;;;;10.77;7.13;;;11.00;70.90;;;;;;5109245;28;20106;-71
2021/04/29 04:07:03;;;;;;;14.10;8.52;;;11.00;73.00;;;;;;5093008;28;20059;-71
2021/04/29 04:09:29;;;;;;;9.65;7.93;;;10.80;74.50;;;;;;5078608;28;20051;-69
2021/04/29 04:11:54;;;;;;;13.15;8.20;;;10.70;74.80;;;;;;5102518;28;20456;-72
2021/04/29 04:14:20;;;;;;;14.00;8.90;;;10.60;75.70;;;;;;5082505;28;20020;-71
2021/04/29 04:16:46;;;;;;;12.07;8.48;;;10.50;76.70;;;;;;5092173;28;20021;-71
2021/04/29 04:19:11;;;;;;;15.15;9.00;;;10.50;77.50;;;;;;5091666;28;20026;-71
2021/04/29 04:21:37;;;;;;;11.00;7.90;;;10.50;77.70;;;;;;5075090;28;20112;-73
2021/04/29 04:24:03;;;;;;;13.00;9.27;;;10.50;76.30;;;;;;5103401;28;20517;-71
2021/04/29 04:26:28;;;;;;;13.20;9.13;;;10.50;76.80;;;;;;5098939;28;20025;-70
2021/04/29 04:28:54;;;;;;;12.73;9.77;;;10.40;76.70;;;;;;5108784;28;20039;-70
2021/04/29 04:31:20;;;;;;;13.32;9.45;;;10.40;77.90;;;;;;5097414;28;20142;-70
2021/04/29 04:33:45;;;;;;;13.77;10.18;;;10.40;78.80;;;;;;5105225;28;20367;-71
2021/04/29 04:36:11;;;;;;;14.82;11.23;;;10.40;80.30;;;;;;5104238;28;20027;-70
2021/04/29 04:38:36;;;;;;;13.55;9.45;;;10.30;80.80;;;;;;5098569;28;20418;-71
2021/04/29 04:41:03;;;;;;;12.85;9.88;;;10.20;79.20;;;;;;5109895;28;20145;-71
2021/04/29 04:43:29;;;;;;;13.73;10.27;;;10.10;79.60;;;;;;5098898;28;20008;-71
2021/04/29 04:45:54;;;;;;;16.38;12.27;;;10.10;80.40;;;;;;5085618;28;20877;-70
2021/04/29 04:48:21;;;;;;;13.43;10.38;;;10.10;82.70;;;;;;5077290;28;20439;-72
2021/04/29 04:50:46;;;;;;;14.70;10.95;;;10.20;82.60;;;;;;5092824;28;20048;-72
2021/04/29 04:53:12;;;;;;;14.13;11.13;;;10.20;82.10;;;;;;5111941;28;20096;-73
2021/04/29 04:55:44;;;;;;;15.50;12.05;;;10.20;82.30;;;;;;5104414;28;20023;-72
2021/04/29 04:58:09;;;;;;;;;;;10.20;83.30;;;;;;5107188;28;20020;-72
2021/04/29 05:00:35;;;;;;;20.80;13.82;;;10.20;84.00;;;;;;5110624;28;19957;-72
2021/04/29 05:03:01;;;;;;;20.85;13.43;;;10.30;85.70;;;;;;5097556;28;20020;-72
2021/04/29 05:05:26;;;;;;;17.65;13.68;;;10.30;86.20;;;;;;5108390;28;20370;-73
2021/04/29 05:07:55;;;;;;;25.15;14.23;;;10.10;85.70;;;;;;5093756;28;20016;-71
2021/04/29 05:10:21;;;;;;;24.73;17.27;;;10.00;85.80;;;;;;5106494;28;20051;-71
2021/04/29 05:12:47;;;;;;;21.65;16.90;;;10.00;87.40;;;;;;5079942;28;20035;-72
2021/04/29 05:15:12;;;;;;;25.50;16.48;;;10.00;87.60;;;;;;5106721;28;20092;-73
2021/04/29 05:17:38;;;;;;;22.75;15.65;;;10.00;87.50;;;;;;5084293;28;20016;-72
2021/04/29 05:20:04;;;;;;;24.63;18.13;;;10.00;87.50;;;;;;5103574;28;20028;-71
2021/04/29 05:22:29;;;;;;;21.65;16.60;;;9.90;87.80;;;;;;5089916;28;20039;-71
2021/04/29 05:24:55;;;;;;;23.63;15.35;;;9.80;87.20;;;;;;5098176;28;20028;-71
2021/04/29 05:27:21;;;;;;;24.40;17.08;;;9.80;87.10;;;;;;5108199;28;20339;-71
2021/04/29 05:29:48;;;;;;;22.42;17.45;;;9.80;87.40;;;;;;5081728;28;20100;-71
2021/04/29 05:32:13;;;;;;;29.67;20.80;;;9.80;88.30;;;;;;5104812;28;20024;-74
2021/04/29 05:34:40;;;;;;;25.83;17.38;;;10.00;89.10;;;;;;5096417;28;20080;-69
2021/04/29 05:37:06;;;;;;;21.20;16.42;;;10.00;87.20;;;;;;5094111;28;20024;-72
2021/04/29 05:39:32;;;;;;;26.42;19.77;;;9.90;87.10;;;;;;5087634;28;20518;-70
2021/04/29 05:41:57;;;;;;;26.50;18.65;;;9.90;87.80;;;;;;5082850;28;20491;-71
2021/04/29 05:44:23;;;;;;;32.08;21.75;;;9.80;87.90;;;;;;5080466;28;20378;-71
2021/04/29 05:46:51;;;;;;;28.52;20.52;;;9.80;88.40;;;;;;5108616;28;20042;-70
2021/04/29 05:49:16;;;;;;;27.73;19.70;;;9.90;88.10;;;;;;5088116;28;20034;-70
2021/04/29 05:51:42;;;;;;;27.92;21.45;;;9.90;88.00;;;;;;5084331;28;20070;-71
2021/04/29 05:54:08;;;;;;;26.67;19.02;;;10.00;88.20;;;;;;5100659;28;20450;-70
2021/04/29 05:56:34;;;;;;;24.90;19.80;;;10.00;87.90;;;;;;5095795;28;20020;-71
2021/04/29 05:58:59;;;;;;;28.95;19.70;;;10.00;87.90;;;;;;5089601;28;20026;-70
2021/04/29 06:01:25;;;;;;;29.95;19.63;;;10.00;87.60;;;;;;5096540;28;20534;-71
2021/04/29 06:03:50;;;;;;;28.52;19.17;;;10.00;87.60;;;;;;5102473;28;20445;-71
2021/04/29 06:06:17;;;;;;;38.75;22.48;;;10.00;87.40;;;;;;5085137;28;20031;-71
2021/04/29 06:08:43;;;;;;;33.05;24.02;;;10.10;88.30;;;;;;5080506;28;20111;-71
2021/04/29 06:11:11;;;;;;;33.55;23.95;;;10.00;88.60;;;;;;5093275;28;20103;-70
2021/04/29 06:13:36;;;;;;;42.45;25.27;;;10.00;88.70;;;;;;5104781;28;20017;-72
2021/04/29 06:16:02;;;;;;;34.85;24.98;;;10.00;89.10;;;;;;5091042;28;20023;-70
2021/04/29 06:18:28;;;;;;;38.25;26.52;;;10.00;89.60;;;;;;5091020;28;20028;-70
2021/04/29 06:20:54;;;;;;;40.47;26.80;;;10.00;90.10;;;;;;5092554;28;20028;-72
2021/04/29 06:23:19;;;;;;;41.20;26.77;;;9.90;90.00;;;;;;5107368;28;20024;-71
2021/04/29 06:25:45;;;;;;;58.20;33.95;;;9.80;90.20;;;;;;5084136;28;20020;-71
2021/04/29 06:28:11;;;;;;;41.33;29.35;;;9.90;91.00;;;;;;5102343;28;20404;-71
2021/04/29 06:30:38;;;;;;;47.30;32.30;;;9.80;90.30;;;;;;5078117;28;20024;-71
2021/04/29 06:33:04;;;;;;;53.45;33.63;;;9.80;90.90;;;;;;5107422;28;20469;-70
2021/04/29 06:35:29;;;;;;;61.35;37.35;;;9.80;90.90;;;;;;5078651;28;20024;-70
2021/04/29 06:37:55;;;;;;;63.72;37.20;;;9.90;91.30;;;;;;5101881;28;20058;-72
2021/04/29 06:40:20;;;;;;;51.80;35.08;;;10.00;91.50;;;;;;5085898;28;20465;-72
2021/04/29 06:42:46;;;;;;;58.33;34.63;;;10.00;91.50;;;;;;5076548;28;20061;-71
2021/04/29 06:45:12;;;;;;;69.43;42.75;;;10.00;91.60;;;;;;5107682;28;20385;-71
2021/04/29 06:47:38;;;;;;;76.22;47.92;;;10.00;91.60;;;;;;5096778;28;20027;-71
2021/04/29 06:50:06;;;;;;;88.40;51.17;;;10.00;91.60;;;;;;5092962;28;20030;-71
2021/04/29 06:52:32;;;;;;;70.10;42.05;;;10.00;91.80;;;;;;5098187;28;20016;-71
2021/04/29 06:54:57;;;;;;;58.03;37.67;;;10.10;92.10;;;;;;5093057;28;20023;-71
2021/04/29 06:57:23;;;;;;;73.50;45.55;;;10.20;92.20;;;;;;5099179;28;20024;-71
2021/04/29 06:59:48;;;;;;;61.72;38.58;;;10.20;92.00;;;;;;5106324;28;20016;-70
2021/04/29 07:02:14;;;;;;;73.97;42.50;;;10.20;91.70;;;;;;5106483;28;20112;-71
2021/04/29 07:04:40;;;;;;;51.58;34.78;;;10.40;92.10;;;;;;5099126;28;20116;-73
2021/04/29 07:07:05;;;;;;;52.10;37.03;;;10.50;91.80;;;;;;5109464;28;20055;-71
2021/04/29 07:09:31;;;;;;;51.40;34.90;;;10.60;92.00;;;;;;5080087;28;20438;-71
2021/04/29 07:11:56;;;;;;;48.15;33.97;;;10.50;91.20;;;;;;5104192;28;20054;-71
2021/04/29 07:14:22;;;;;;;42.40;31.38;;;10.50;91.30;;;;;;5101650;28;20066;-72
2021/04/29 07:16:48;;;;;;;44.35;33.47;;;10.50;90.90;;;;;;5111006;28;20508;-71
2021/04/29 07:19:14;;;;;;;54.00;36.25;;;10.40;90.70;;;;;;5063113;28;20125;-70
2021/04/29 07:21:40;;;;;;;52.83;36.05;;;10.40;90.80;;;;;;5107610;28;20026;-69
2021/04/29 07:24:06;;;;;;;55.70;35.38;;;10.50;91.40;;;;;;5104927;28;20023;-69
2021/04/29 07:26:41;;;;;;;46.00;32.45;;;10.60;91.00;;;;;;5099741;28;20511;-70
2021/04/29 07:29:06;;;;;;;40.92;29.60;;;10.60;90.20;;;;;;5110974;28;20077;-70
2021/04/29 07:31:32;;;;;;;45.60;31.27;;;10.60;89.60;;;;;;5100086;28;20019;-70
2021/04/29 07:34:03;;;;;;;48.20;33.25;;;10.70;90.20;;;;;;5104609;28;20095;-71
2021/04/29 07:36:29;;;;;;;43.97;31.35;;;10.70;90.50;;;;;;5089857;28;20016;-72
2021/04/29 07:38:55;;;;;;;45.28;32.75;;;10.90;90.00;;;;;;5079272;28;20027;-75
2021/04/29 07:41:24;;;;;;;39.63;29.75;;;11.20;90.30;;;;;;5091487;28;20114;-74
2021/04/29 07:43:50;;;;;;;43.55;29.25;;;11.60;90.40;;;;;;5102616;28;20015;-71
2021/04/29 07:46:16;;;;;;;36.25;24.95;;;11.70;88.50;;;;;;5101600;28;20032;-71
2021/04/29 07:48:41;;;;;;;29.10;21.00;;;11.90;88.10;;;;;;5093946;28;20020;-73
2021/04/29 07:51:07;;;;;;;56.95;34.20;;;11.90;86.30;;;;;;5091926;28;20020;-71
2021/04/29 07:53:32;;;;;;;175.70;88.30;;;12.00;85.80;;;;;;5099909;28;20389;-69
2021/04/29 07:55:59;;;;;;;26.77;20.85;;;11.90;86.40;;;;;;5104174;28;20016;-71
2021/04/29 07:58:25;;;;;;;27.95;20.45;;;11.70;85.30;;;;;;5106997;28;20031;-70
2021/04/29 08:00:51;;;;;;;29.77;21.58;;;11.50;85.60;;;;;;5096669;28;20043;-72
2021/04/29 08:03:17;;;;;;;28.75;20.15;;;11.60;85.90;;;;;;5109715;28;20016;-72
2021/04/29 08:05:42;;;;;;;27.13;20.35;;;11.60;85.00;;;;;;5100823;28;20040;-71
2021/04/29 08:08:09;;;;;;;25.98;18.33;;;11.70;85.50;;;;;;5073675;28;20025;-70
2021/04/29 08:10:35;;;;;;;25.60;19.20;;;11.80;84.00;;;;;;5102712;28;20067;-72
2021/04/29 08:13:01;;;;;;;27.45;20.50;;;11.90;84.50;;;;;;5078404;28;20024;-70
2021/04/29 08:15:26;;;;;;;26.67;18.67;;;12.00;84.50;;;;;;5108252;28;20020;-71
2021/04/29 08:17:52;;;;;;;24.77;18.55;;;12.10;84.10;;;;;;5103719;28;20103;-69
2021/04/29 08:20:17;;;;;;;26.85;18.52;;;12.50;83.50;;;;;;5129512;28;20032;-72
2021/04/29 08:22:43;;;;;;;22.33;16.25;;;12.70;84.00;;;;;;5113489;28;20043;-71
2021/04/29 08:25:12;;;;;;;29.98;18.05;;;12.80;80.10;;;;;;5124853;28;20039;-71
2021/04/29 08:27:40;;;;;;;23.13;17.33;;;12.80;79.50;;;;;;5100079;28;20036;-70
2021/04/29 08:30:07;;;;;;;24.85;17.17;;;12.60;80.00;;;;;;5103209;28;20084;-72
2021/04/29 08:32:33;;;;;;;22.42;17.10;;;12.50;79.80;;;;;;5108310;28;20034;-72
2021/04/29 08:34:58;;;;;;;20.80;16.77;;;12.60;80.10;;;;;;5078196;28;20024;-72
2021/04/29 08:37:24;;;;;;;44.20;27.27;;;12.70;80.70;;;;;;5108318;28;20024;-73
2021/04/29 08:39:49;;;;;;;26.77;18.13;;;13.00;80.00;;;;;;5083016;28;20109;-73
2021/04/29 08:42:16;;;;;;;21.38;16.30;;;13.20;79.10;;;;;;5100617;28;20024;-71
2021/04/29 08:44:42;;;;;;;21.77;17.95;;;13.50;78.80;;;;;;5108416;28;20389;-72
2021/04/29 08:47:11;;;;;;;21.98;16.83;;;13.70;76.50;;;;;;5077452;28;20119;-73
2021/04/29 08:49:40;;;;;;;23.35;17.90;;;13.90;77.80;;;;;;5106254;28;20070;-73
2021/04/29 08:52:10;;;;;;;21.67;16.55;;;14.20;78.20;;;;;;5085215;28;20016;-74
2021/04/29 08:54:38;;;;;;;22.33;15.02;;;15.00;76.40;;;;;;5079398;28;20058;-73
2021/04/29 08:57:05;;;;;;;19.92;14.80;;;16.20;72.40;;;;;;5108743;28;20469;-73
2021/04/29 08:59:31;;;;;;;18.23;13.50;;;16.90;70.80;;;;;;5080327;28;20050;-73
2021/04/29 09:02:03;;;;;;;16.77;13.57;;;17.10;67.80;;;;;;5102867;28;20466;-72
2021/04/29 09:04:42;;;;;;;19.38;12.27;;;17.90;66.40;;;;;;5088055;28;20122;-73
2021/04/29 09:07:15;;;;;;;16.13;12.02;;;18.80;60.80;;;;;;5093381;28;20016;-73
2021/04/29 09:09:42;;;;;;;21.20;12.77;;;19.70;62.90;;;;;;5081215;28;20097;-73
2021/04/29 09:12:08;;;;;;;29.27;18.30;;;20.70;56.30;;;;;;5101318;28;20020;-73
2021/04/29 09:14:39;;;;;;;25.70;15.98;;;20.90;57.00;;;;;;5106907;28;20173;-71
2021/04/29 09:17:05;;;;;;;88.70;51.83;;;21.20;55.90;;;;;;5095102;28;20098;-67
2021/04/29 09:19:35;;;;;;;40.30;24.23;;;21.30;54.00;;;;;;5088424;28;20031;-70
2021/04/29 09:22:01;;;;;;;19.25;12.05;;;21.20;52.10;;;;;;5102270;28;20031;-69
2021/04/29 09:24:45;;;;;;;35.38;25.75;;;20.70;53.90;;;;;;5098722;28;20028;-73
2021/04/29 09:27:16;;;;;;;94.55;56.55;;;20.50;52.50;;;;;;5108386;28;20024;-72
2021/04/29 09:29:54;;;;;;;41.53;24.77;;;20.70;51.70;;;;;;5099872;28;20088;-71
2021/04/29 09:32:24;;;;;;;65.43;37.53;;;20.20;52.30;;;;;;5081010;28;20080;-70
2021/04/29 09:34:50;;;;;;;15.27;7.10;;;19.90;51.80;;;;;;5108974;28;20478;-72
2021/04/29 09:37:26;;;;;;;32.78;19.73;;;20.00;52.20;;;;;;5095618;28;20024;-72
2021/04/29 09:39:51;;;;;;;56.83;34.30;;;19.90;50.30;;;;;;5103486;28;20068;-72
2021/04/29 09:42:36;;;;;;;52.40;30.55;;;19.20;52.60;;;;;;5104373;28;20455;-72
2021/04/29 09:45:04;;;;;;;65.03;36.33;;;18.70;53.30;;;;;;5075458;28;20028;-71
2021/04/29 09:47:30;;;;;;;70.43;40.40;;;18.10;54.80;;;;;;5097171;28;20016;-71
2021/04/29 09:49:56;;;;;;;41.75;23.23;;;18.00;56.20;;;;;;5084052;28;20026;-72
2021/04/29 09:52:24;;;;;;;21.85;13.57;;;17.70;56.40;;;;;;5105113;28;20020;-73
2021/04/29 09:54:52;;;;;;;22.40;13.57;;;17.50;56.70;;;;;;5077087;28;20021;-71
2021/04/29 09:57:27;;;;;;;55.90;33.83;;;17.60;57.50;;;;;;5107058;28;20035;-71
2021/04/29 09:59:58;;;;;;;26.33;15.60;;;17.70;57.50;;;;;;5100822;28;20020;-71
2021/04/29 10:02:25;;;;;;;103.53;58.80;;;17.90;56.40;;;;;;5098401;28;20186;-71
2021/04/29 10:04:52;;;;;;;52.65;33.55;;;18.10;56.60;;;;;;5108327;28;20037;-72
2021/04/29 10:07:19;;;;;;;34.88;21.25;;;18.50;55.30;;;;;;5091357;28;20016;-71
2021/04/29 10:09:46;;;;;;;37.28;23.02;;;19.20;52.70;;;;;;5098157;28;20397;-73
2021/04/29 10:12:14;;;;;;;71.60;43.80;;;20.00;50.50;;;;;;5099624;28;20020;-72
2021/04/29 10:14:45;;;;;;;22.98;13.70;;;20.40;49.90;;;;;;5071241;28;20055;-70
2021/04/29 10:17:13;;;;;;;28.75;17.85;;;20.50;48.60;;;;;;5093661;28;20038;-72
2021/04/29 10:19:54;;;;;;;26.95;16.60;;;20.60;48.50;;;;;;5104158;28;20020;-77
2021/04/29 10:22:23;;;;;;;24.85;16.73;;;20.20;49.20;;;;;;5103384;28;20123;-72
2021/04/29 10:24:49;;;;;;;17.38;11.88;;;19.90;49.50;;;;;;5094093;28;20032;-72
2021/04/29 10:27:23;;;;;;;11.98;8.60;;;19.90;49.50;;;;;;5091044;28;20032;-73
2021/04/29 10:29:49;;;;;;;30.10;18.75;;;19.80;50.10;;;;;;5102963;28;20031;-71
2021/04/29 10:32:15;;;;;;;24.48;16.00;;;19.60;49.40;;;;;;5102741;28;20032;-72
2021/04/29 10:34:45;;;;;;;27.45;16.42;;;19.60;49.60;;;;;;5075146;28;20485;-70
2021/04/29 10:37:19;;;;;;;31.52;17.85;;;19.50;48.20;;;;;;5097394;28;20022;-69
2021/04/29 10:39:59;;;;;;;10.80;7.45;;;19.50;49.50;;;;;;5106560;28;20020;-71
2021/04/29 10:42:28;;;;;;;13.75;8.68;;;19.30;49.10;;;;;;5089957;28;20043;-72
2021/04/29 10:44:58;;;;;;;43.97;27.42;;;19.20;49.20;;;;;;5098416;28;20031;-73
2021/04/29 10:47:29;;;;;;;12.85;6.97;;;19.00;47.40;;;;;;5090534;28;20062;-73
2021/04/29 10:50:17;;;;;;;20.80;12.83;;;18.80;47.20;;;;;;5103774;28;20031;-72
2021/04/29 10:52:48;;;;;;;27.52;16.33;;;18.90;48.30;;;;;;5098506;28;20024;-70
2021/04/29 10:55:29;;;;;;;20.13;11.82;;;19.00;47.70;;;;;;5081299;28;20012;-71
2021/04/29 10:57:55;;;;;;;29.52;17.75;;;18.90;47.00;;;;;;5087088;28;20024;-68
2021/04/29 11:00:21;;;;;;;8.38;4.68;;;18.60;49.10;;;;;;5108197;28;20047;-71
2021/04/29 11:03:02;;;;;;;18.52;10.55;;;18.60;48.00;;;;;;5099154;28;20024;-72
2021/04/29 11:05:28;;;;;;;12.55;5.57;;;18.90;48.00;;;;;;5085649;28;20019;-70
2021/04/29 11:07:55;;;;;;;25.88;14.90;;;18.80;47.00;;;;;;5078635;28;20023;-71
2021/04/29 11:10:25;;;;;;;19.83;10.70;;;18.90;48.60;;;;;;5100157;28;20024;-71
2021/04/29 11:12:58;;;;;;;25.20;15.75;;;19.00;45.30;;;;;;5098009;28;20461;-72
2021/04/29 11:15:30;;;;;;;28.20;18.17;;;19.00;44.70;;;;;;5110011;28;20012;-69
2021/04/29 11:18:16;;;;;;;33.28;22.15;;;19.00;44.00;;;;;;5103529;28;20039;-70
2021/04/29 11:20:55;;;;;;;33.47;20.63;;;19.20;44.20;;;;;;5098612;28;20020;-70
2021/04/29 11:23:26;;;;;;;19.98;12.27;;;19.30;44.30;;;;;;5083219;28;20024;-72
2021/04/29 11:26:06;;;;;;;26.23;16.85;;;19.50;44.00;;;;;;5087477;28;20020;-72
2021/04/29 11:28:32;;;;;;;28.15;19.67;;;19.60;43.90;;;;;;5090404;28;20042;-73
2021/04/29 11:31:00;;;;;;;21.05;13.27;;;19.80;45.30;;;;;;5097530;28;20186;-70
2021/04/29 11:33:33;;;;;;;21.55;13.15;;;19.90;43.20;;;;;;5091469;28;20078;-72
2021/04/29 11:35:59;;;;;;;26.70;18.63;;;19.90;45.00;;;;;;5103825;28;20023;-70
2021/04/29 11:38:24;;;;;;;77.68;47.60;;;20.00;43.20;;;;;;5081914;28;20245;-70
2021/04/29 11:40:50;;;;;;;30.70;17.02;;;20.10;44.40;;;;;;5110822;28;20031;-70
2021/04/29 11:43:15;;;;;;;15.48;9.68;;;20.20;42.00;;;;;;5097796;28;20032;-69
2021/04/29 11:45:42;;;;;;;25.23;12.65;;;20.20;42.20;;;;;;5106605;28;20016;-69
2021/04/29 11:48:13;;;;;;;22.25;13.50;;;20.50;42.70;;;;;;5104607;28;20038;-68
2021/04/29 11:50:52;;;;;;;9.68;5.05;;;20.60;42.80;;;;;;5080652;28;20129;-70
2021/04/29 11:53:24;;;;;;;44.25;26.27;;;20.70;40.10;;;;;;5082120;28;20012;-70
2021/04/29 11:55:55;;;;;;;;;;;20.80;40.20;;;;;;5106375;28;20012;-69
2021/04/29 11:58:21;;;;;;;35.40;20.52;;;20.50;38.40;;;;;;5093271;28;20338;-69
2021/04/29 12:00:49;;;;;;;18.48;11.68;;;20.30;39.40;;;;;;5110108;28;20329;-70
2021/04/29 12:03:15;;;;;;;20.25;12.02;;;20.30;39.70;;;;;;5077720;28;20031;-70
2021/04/29 12:05:43;;;;;;;21.98;12.68;;;20.30;39.80;;;;;;5091646;28;20027;-71
2021/04/29 12:08:15;;;;;;;38.78;22.50;;;20.40;38.90;;;;;;5094112;28;20020;-71
2021/04/29 12:10:42;;;;;;;31.48;18.65;;;20.40;39.10;;;;;;5108857;28;20031;-72
2021/04/29 12:13:08;;;;;;;12.57;7.63;;;20.40;38.10;;;;;;5093931;28;20032;-72
2021/04/29 12:15:34;;;;;;;54.47;31.55;;;20.00;38.70;;;;;;5077724;28;20020;-72
2021/04/29 12:18:00;;;;;;;33.22;19.95;;;19.90;40.20;;;;;;5103100;28;20443;-73
2021/04/29 12:20:26;;;;;;;37.17;21.80;;;19.90;40.30;;;;;;5091310;28;20393;-71
2021/04/29 12:22:52;;;;;;;33.50;20.52;;;19.70;39.90;;;;;;5090541;28;20520;-72
2021/04/29 12:25:22;;;;;;;26.77;16.45;;;19.80;40.50;;;;;;5109521;28;20082;-71
2021/04/29 12:27:47;;;;;;;29.95;18.83;;;20.00;40.20;;;;;;5102120;28;20031;-74
2021/04/29 12:30:14;;;;;;;6.40;4.57;;;20.30;40.40;;;;;;5109404;28;20066;-72
2021/04/29 12:32:45;;;;;;;26.27;15.88;;;20.60;40.40;;;;;;5097486;28;20028;-72
2021/04/29 12:35:35;;;;;;;40.95;25.38;;;20.60;39.40;;;;;;5075107;28;20020;-71